ěÝzenÝ letovÚho provozu ╚eskÚ republiky
Letiste: LKKB Aktualizace: 21.10.2021 11:59:29  UTC
 METAR LKKB 21.10. 12:00 ...
METAR LKKB 211200Z 25032G45KT 220V280 9999 BKN048 16/04 Q1003 NOSIG RMK BLU BLU=
 TAF LKKB 21.10. 11:00 ...
TAF LKKB 211100Z 2112/2212 23016G26KT CAVOK      TEMPO 2112/2117 24028G50KT      PROB30 TEMPO 2112/2121 9999 SHRA BKN035      BECMG 2118/2120 24016KT      TEMPO 2121/2200 5000 SHRA BKN015      BECMG 2209/2211 24020G30KT=
 WARNING LKKB 21.10. 08:15 ...
LKKB AD WRNG 1 VALID 210820/211220 SFC WSPD MAX OVR 40KT INTSF=